Carnforth, United Kingdom
Current Conditions -  °F | °C
As of 12:50 AM on Sunday 26 Oct 2014 (Local Time) from EGXE Reporting Station
Broken Clouds Broken Clouds  
Wind Chill: 55°   Ceiling: 5000
Heat Index: 55°   Visibility: 6mi
Dew Point: 46°   Wind: 17mph
Humidity: 72%   Direction: 210°SSW
Pressure: 29.91"   Gusts: NA
Location:  54.12°N, 2.77°W
Report Text: EGXE 252350Z AUTO 21015KT 9999 FEW033/// BKN050/// 13/08 Q1013
Loading
Personal Weather Stations






























Interactive Weather Map
Tropical Storm Tracking
New forecast layout! Learn more

10-Day Weather Forecast

Advertisements
Track Severe Weather on mobile